sensor_id;sensor_type;location;lat;lon;timestamp;pressure;altitude;pressure_sealevel;temperature;humidity
57094;BME280;42970;50.996;3.706;2022-08-01T00:00:34;75888.22;;;-146.65;86.83
57094;BME280;42970;50.996;3.706;2022-08-01T00:03:00;75892.25;;;-146.65;86.65
57094;BME280;42970;50.996;3.706;2022-08-01T00:05:25;75888.22;;;-146.65;86.65
57094;BME280;42970;50.996;3.706;2022-08-01T00:07:51;75880.16;;;-146.65;86.49
57094;BME280;42970;50.996;3.706;2022-08-01T00:10:17;75892.25;;;-146.65;86.71
57094;BME280;42970;50.996;3.706;2022-08-01T00:12:44;75888.22;;;-146.65;86.39
57094;BME280;42970;50.996;3.706;2022-08-01T00:15:12;75880.16;;;-146.65;86.28
57094;BME280;42970;50.996;3.706;2022-08-01T00:17:38;75884.19;;;-146.65;86.20
57094;BME280;42970;50.996;3.706;2022-08-01T00:20:05;75884.19;;;-146.65;86.16
57094;BME280;42970;50.996;3.706;2022-08-01T00:22:32;75890.25;;;-146.65;86.51
57094;BME280;42970;50.996;3.706;2022-08-01T00:24:58;75888.22;;;-146.65;86.46
57094;BME280;42970;50.996;3.706;2022-08-01T00:27:23;75888.22;;;-146.65;86.32
57094;BME280;42970;50.996;3.706;2022-08-01T00:29:49;75884.19;;;-146.65;86.52
57094;BME280;42970;50.996;3.706;2022-08-01T00:32:14;75890.25;;;-146.65;86.39
57094;BME280;42970;50.996;3.706;2022-08-01T00:34:40;75884.19;;;-146.65;86.58
57094;BME280;42970;50.996;3.706;2022-08-01T00:37:05;75880.16;;;-146.65;86.38
57094;BME280;42970;50.996;3.706;2022-08-01T00:39:30;75878.13;;;-146.65;86.28
57094;BME280;42970;50.996;3.706;2022-08-01T00:41:58;75876.13;;;-146.65;86.36
57094;BME280;42970;50.996;3.706;2022-08-01T00:44:24;75872.09;;;-146.65;86.18
57094;BME280;42970;50.996;3.706;2022-08-01T00:46:49;75866.03;;;-146.65;85.99
57094;BME280;42970;50.996;3.706;2022-08-01T00:49:14;75866.03;;;-146.65;86.39
57094;BME280;42970;50.996;3.706;2022-08-01T00:51:40;75876.13;;;-146.65;86.57
57094;BME280;42970;50.996;3.706;2022-08-01T00:54:05;75876.13;;;-146.65;86.96
57094;BME280;42970;50.996;3.706;2022-08-01T00:56:31;75880.16;;;-146.65;87.27
57094;BME280;42970;50.996;3.706;2022-08-01T00:58:56;75880.16;;;-146.65;87.32
57094;BME280;42970;50.996;3.706;2022-08-01T01:01:22;75882.16;;;-146.65;87.96
57094;BME280;42970;50.996;3.706;2022-08-01T01:03:51;75882.16;;;-146.65;88.24
57094;BME280;42970;50.996;3.706;2022-08-01T01:17:34;75868.06;;;-146.65;88.85
57094;BME280;42970;50.996;3.706;2022-08-01T01:20:02;75872.09;;;-146.65;88.75
57094;BME280;42970;50.996;3.706;2022-08-01T01:28:00;75892.25;;;-146.65;90.24
57094;BME280;42970;50.996;3.706;2022-08-01T01:30:28;75896.28;;;-146.65;91.06
57094;BME280;42970;50.996;3.706;2022-08-01T01:32:59;75896.28;;;-146.65;91.53
57094;BME280;42970;50.996;3.706;2022-08-01T01:35:28;75896.28;;;-146.65;91.55
57094;BME280;42970;50.996;3.706;2022-08-01T01:38:00;75890.25;;;-146.65;91.92
57094;BME280;42970;50.996;3.706;2022-08-01T01:40:27;75904.34;;;-146.65;92.02
57094;BME280;42970;50.996;3.706;2022-08-01T01:42:55;75908.41;;;-146.65;92.75
57094;BME280;42970;50.996;3.706;2022-08-01T01:45:24;75912.44;;;-146.65;93.17
57094;BME280;42970;50.996;3.706;2022-08-01T01:47:50;75914.44;;;-146.65;93.80
57094;BME280;42970;50.996;3.706;2022-08-01T01:50:22;75920.50;;;-146.65;94.46
57094;BME280;42970;50.996;3.706;2022-08-01T01:52:49;75932.59;;;-146.65;95.00
57094;BME280;42970;50.996;3.706;2022-08-01T01:55:16;75924.53;;;-146.65;95.82
57094;BME280;42970;50.996;3.706;2022-08-01T01:57:44;75932.59;;;-146.65;96.12
57094;BME280;42970;50.996;3.706;2022-08-01T02:00:11;75932.59;;;-146.65;96.79
57094;BME280;42970;50.996;3.706;2022-08-01T02:02:38;75932.59;;;-146.65;97.41
57094;BME280;42970;50.996;3.706;2022-08-01T02:05:05;75930.59;;;-146.65;98.09
57094;BME280;42970;50.996;3.706;2022-08-01T02:07:32;75934.63;;;-146.65;98.04
57094;BME280;42970;50.996;3.706;2022-08-01T02:09:59;75934.63;;;-146.65;98.37
57094;BME280;42970;50.996;3.706;2022-08-01T02:12:25;75946.72;;;-146.65;98.70
57094;BME280;42970;50.996;3.706;2022-08-01T02:14:52;75954.78;;;-146.65;99.13
57094;BME280;42970;50.996;3.706;2022-08-01T02:17:20;75968.91;;;-146.65;99.35
57094;BME280;42970;50.996;3.706;2022-08-01T02:19:49;75987.06;;;-146.65;99.51
57094;BME280;42970;50.996;3.706;2022-08-01T02:22:27;75987.06;;;-146.65;100.00
57094;BME280;42970;50.996;3.706;2022-08-01T02:27:34;76017.31;;;-146.65;100.00
57094;BME280;42970;50.996;3.706;2022-08-01T02:30:07;76019.34;;;-146.65;100.00
57094;BME280;42970;50.996;3.706;2022-08-01T02:32:41;76019.34;;;-146.65;100.00
57094;BME280;42970;50.996;3.706;2022-08-01T02:35:13;76009.25;;;-146.65;100.00
57094;BME280;42970;50.996;3.706;2022-08-01T02:37:45;76017.31;;;-146.65;100.00
57094;BME280;42970;50.996;3.706;2022-08-01T02:40:12;76009.25;;;-146.65;100.00
57094;BME280;42970;50.996;3.706;2022-08-01T02:42:43;76005.22;;;-146.65;100.00
57094;BME280;42970;50.996;3.706;2022-08-01T02:45:12;75997.16;;;-146.65;100.00
57094;BME280;42970;50.996;3.706;2022-08-01T02:47:38;75995.13;;;-146.65;100.00
57094;BME280;42970;50.996;3.706;2022-08-01T02:50:05;75995.13;;;-146.65;100.00
57094;BME280;42970;50.996;3.706;2022-08-01T02:52:33;75983.03;;;-146.65;100.00
57094;BME280;42970;50.996;3.706;2022-08-01T02:55:00;75968.91;;;-146.65;100.00
57094;BME280;42970;50.996;3.706;2022-08-01T02:57:27;75962.84;;;-146.65;99.86
57094;BME280;42970;50.996;3.706;2022-08-01T02:59:55;75952.78;;;-146.65;99.21
57094;BME280;42970;50.996;3.706;2022-08-01T03:02:23;75936.63;;;-146.65;98.72
57094;BME280;42970;50.996;3.706;2022-08-01T03:04:50;75928.56;;;-146.65;98.07
57094;BME280;42970;50.996;3.706;2022-08-01T03:07:17;75924.53;;;-146.65;97.34
57094;BME280;42970;50.996;3.706;2022-08-01T03:09:45;75918.47;;;-146.65;96.33
57094;BME280;42970;50.996;3.706;2022-08-01T03:12:24;75910.41;;;-146.65;95.65
57094;BME280;42970;50.996;3.706;2022-08-01T03:14:51;75908.41;;;-146.65;94.49
57094;BME280;42970;50.996;3.706;2022-08-01T03:17:21;75908.41;;;-146.65;93.76
57094;BME280;42970;50.996;3.706;2022-08-01T03:19:48;75914.44;;;-146.65;93.27
57094;BME280;42970;50.996;3.706;2022-08-01T03:22:15;75910.41;;;-146.65;93.15
57094;BME280;42970;50.996;3.706;2022-08-01T03:24:44;75906.38;;;-146.65;92.82
57094;BME280;42970;50.996;3.706;2022-08-01T03:27:11;75920.50;;;-146.65;92.92
57094;BME280;42970;50.996;3.706;2022-08-01T03:29:37;75918.47;;;-146.65;92.80
57094;BME280;42970;50.996;3.706;2022-08-01T03:32:05;75920.50;;;-146.65;92.61
57094;BME280;42970;50.996;3.706;2022-08-01T03:34:31;75922.50;;;-146.65;92.87
57094;BME280;42970;50.996;3.706;2022-08-01T03:37:07;75912.44;;;-146.65;92.85
57094;BME280;42970;50.996;3.706;2022-08-01T03:39:40;75910.41;;;-146.65;92.71
57094;BME280;42970;50.996;3.706;2022-08-01T03:42:12;75908.41;;;-146.65;92.55
57094;BME280;42970;50.996;3.706;2022-08-01T03:44:40;75906.38;;;-146.65;92.29
57094;BME280;42970;50.996;3.706;2022-08-01T03:47:08;75914.44;;;-146.65;92.25
57094;BME280;42970;50.996;3.706;2022-08-01T03:49:42;75912.44;;;-146.65;92.22
57094;BME280;42970;50.996;3.706;2022-08-01T03:52:08;75920.50;;;-146.65;92.30
57094;BME280;42970;50.996;3.706;2022-08-01T03:54:36;75918.47;;;-146.65;92.73
57094;BME280;42970;50.996;3.706;2022-08-01T03:57:03;75930.59;;;-146.65;92.57
57094;BME280;42970;50.996;3.706;2022-08-01T03:59:31;75920.50;;;-146.65;92.82
57094;BME280;42970;50.996;3.706;2022-08-01T04:01:57;75928.56;;;-146.65;92.81
57094;BME280;42970;50.996;3.706;2022-08-01T04:04:23;75936.63;;;-146.65;92.82
57094;BME280;42970;50.996;3.706;2022-08-01T04:06:49;75932.59;;;-146.65;92.40
57094;BME280;42970;50.996;3.706;2022-08-01T04:09:19;75930.59;;;-146.65;92.14
57094;BME280;42970;50.996;3.706;2022-08-01T04:11:45;75928.56;;;-146.65;91.82
57094;BME280;42970;50.996;3.706;2022-08-01T04:14:11;75928.56;;;-146.65;91.44
57094;BME280;42970;50.996;3.706;2022-08-01T04:16:37;75928.56;;;-146.65;91.23
57094;BME280;42970;50.996;3.706;2022-08-01T04:19:02;75928.56;;;-146.65;90.92
57094;BME280;42970;50.996;3.706;2022-08-01T04:21:31;75924.53;;;-146.65;90.75
57094;BME280;42970;50.996;3.706;2022-08-01T04:24:05;75920.50;;;-146.65;90.51
57094;BME280;42970;50.996;3.706;2022-08-01T04:26:32;75924.53;;;-146.65;90.37
57094;BME280;42970;50.996;3.706;2022-08-01T04:29:02;75928.56;;;-146.65;90.77
57094;BME280;42970;50.996;3.706;2022-08-01T04:31:28;75928.56;;;-146.65;90.41
57094;BME280;42970;50.996;3.706;2022-08-01T04:33:55;75938.66;;;-146.65;90.34
57094;BME280;42970;50.996;3.706;2022-08-01T04:36:23;75934.63;;;-146.65;90.28
57094;BME280;42970;50.996;3.706;2022-08-01T04:38:59;75934.63;;;-146.65;90.37
57094;BME280;42970;50.996;3.706;2022-08-01T04:41:26;75932.59;;;-146.65;90.09
57094;BME280;42970;50.996;3.706;2022-08-01T04:43:52;75952.78;;;-146.65;89.87
57094;BME280;42970;50.996;3.706;2022-08-01T04:46:20;75934.63;;;-146.65;89.31
57094;BME280;42970;50.996;3.706;2022-08-01T04:48:47;75948.75;;;-146.65;89.60
57094;BME280;42970;50.996;3.706;2022-08-01T04:51:15;75936.63;;;-146.65;89.27
57094;BME280;42970;50.996;3.706;2022-08-01T04:53:41;75936.63;;;-146.65;89.03
57094;BME280;42970;50.996;3.706;2022-08-01T04:56:06;75938.66;;;-146.65;89.13
57094;BME280;42970;50.996;3.706;2022-08-01T04:58:32;75934.63;;;-146.65;88.75
57094;BME280;42970;50.996;3.706;2022-08-01T05:00:57;75944.69;;;-146.65;88.90
57094;BME280;42970;50.996;3.706;2022-08-01T05:03:23;75942.69;;;-146.65;88.87
57094;BME280;42970;50.996;3.706;2022-08-01T05:05:48;75944.69;;;-146.65;88.78
57094;BME280;42970;50.996;3.706;2022-08-01T05:08:14;75936.63;;;-146.65;88.76
57094;BME280;42970;50.996;3.706;2022-08-01T05:10:39;75930.59;;;-146.65;88.24
57094;BME280;42970;50.996;3.706;2022-08-01T05:13:05;75928.56;;;-146.65;88.02
57094;BME280;42970;50.996;3.706;2022-08-01T05:15:31;75932.59;;;-146.65;87.87
57094;BME280;42970;50.996;3.706;2022-08-01T05:17:57;75946.72;;;-146.65;87.68
57094;BME280;42970;50.996;3.706;2022-08-01T05:20:22;75924.53;;;-146.65;87.85
57094;BME280;42970;50.996;3.706;2022-08-01T05:22:48;75916.47;;;-146.65;87.30
57094;BME280;42970;50.996;3.706;2022-08-01T05:25:13;75918.47;;;-146.65;86.89
57094;BME280;42970;50.996;3.706;2022-08-01T05:27:38;75912.44;;;-146.65;86.66
57094;BME280;42970;50.996;3.706;2022-08-01T05:30:07;75910.41;;;-146.65;86.75
57094;BME280;42970;50.996;3.706;2022-08-01T05:32:33;75900.31;;;-146.65;86.79
57094;BME280;42970;50.996;3.706;2022-08-01T05:34:59;75898.31;;;-146.65;86.59
57094;BME280;42970;50.996;3.706;2022-08-01T05:37:25;75898.31;;;-146.65;86.53
57094;BME280;42970;50.996;3.706;2022-08-01T05:39:50;75902.34;;;-146.65;86.43
57094;BME280;42970;50.996;3.706;2022-08-01T05:42:15;75896.28;;;-146.65;86.13
57094;BME280;42970;50.996;3.706;2022-08-01T05:44:41;75900.31;;;-146.65;85.66
57094;BME280;42970;50.996;3.706;2022-08-01T05:47:06;75890.25;;;-146.65;85.73
57094;BME280;42970;50.996;3.706;2022-08-01T05:49:32;75882.16;;;-146.65;85.67
57094;BME280;42970;50.996;3.706;2022-08-01T05:51:57;75880.16;;;-146.65;84.78
57094;BME280;42970;50.996;3.706;2022-08-01T05:54:22;75872.09;;;-146.65;84.38
57094;BME280;42970;50.996;3.706;2022-08-01T05:56:48;75864.00;;;-146.65;84.47
57094;BME280;42970;50.996;3.706;2022-08-01T05:59:13;75855.94;;;-146.65;84.09
57094;BME280;42970;50.996;3.706;2022-08-01T06:01:38;75857.97;;;-146.65;83.81
57094;BME280;42970;50.996;3.706;2022-08-01T06:04:04;75864.00;;;-146.65;83.01
57094;BME280;42970;50.996;3.706;2022-08-01T06:06:29;75866.03;;;-146.65;84.11
57094;BME280;42970;50.996;3.706;2022-08-01T06:08:54;75862.00;;;-146.65;83.58
57094;BME280;42970;50.996;3.706;2022-08-01T06:11:20;75855.94;;;-146.65;83.31
57094;BME280;42970;50.996;3.706;2022-08-01T06:13:45;75849.91;;;-146.65;82.75
57094;BME280;42970;50.996;3.706;2022-08-01T06:16:11;75851.91;;;-146.65;82.51
57094;BME280;42970;50.996;3.706;2022-08-01T06:18:36;75835.78;;;-146.65;82.14
57094;BME280;42970;50.996;3.706;2022-08-01T06:21:02;75831.75;;;-146.65;81.71
57094;BME280;42970;50.996;3.706;2022-08-01T06:23:27;75847.88;;;-146.65;80.69
57094;BME280;42970;50.996;3.706;2022-08-01T06:25:53;75827.72;;;-146.65;80.89
57094;BME280;42970;50.996;3.706;2022-08-01T06:28:23;75819.63;;;-146.65;80.01
57094;BME280;42970;50.996;3.706;2022-08-01T06:30:49;75815.59;;;-146.65;79.80
57094;BME280;42970;50.996;3.706;2022-08-01T06:33:14;75801.47;;;-146.65;79.63
57094;BME280;42970;50.996;3.706;2022-08-01T06:35:39;75795.44;;;-146.65;78.78
57094;BME280;42970;50.996;3.706;2022-08-01T06:38:05;75807.53;;;-146.65;77.31
57094;BME280;42970;50.996;3.706;2022-08-01T06:40:30;75799.47;;;-146.65;76.84
57094;BME280;42970;50.996;3.706;2022-08-01T06:42:56;75797.44;;;-146.65;76.42
57094;BME280;42970;50.996;3.706;2022-08-01T06:45:21;75807.53;;;-146.65;76.85
57094;BME280;42970;50.996;3.706;2022-08-01T06:47:52;75797.44;;;-146.65;76.91
57094;BME280;42970;50.996;3.706;2022-08-01T06:50:18;75801.47;;;-146.65;76.12
57094;BME280;42970;50.996;3.706;2022-08-01T06:52:43;75793.41;;;-146.65;75.94
57094;BME280;42970;50.996;3.706;2022-08-01T06:55:09;75777.28;;;-146.65;76.29
57094;BME280;42970;50.996;3.706;2022-08-01T06:57:35;75789.38;;;-146.65;75.97
57094;BME280;42970;50.996;3.706;2022-08-01T07:00:04;75787.38;;;-146.65;74.98
57094;BME280;42970;50.996;3.706;2022-08-01T07:02:36;75817.63;;;-146.65;73.17
57094;BME280;42970;50.996;3.706;2022-08-01T07:05:02;75803.50;;;-146.65;72.54
57094;BME280;42970;50.996;3.706;2022-08-01T07:07:29;75793.41;;;-146.65;72.05
57094;BME280;42970;50.996;3.706;2022-08-01T07:09:55;75779.28;;;-146.65;71.82
57094;BME280;42970;50.996;3.706;2022-08-01T07:12:20;75781.31;;;-146.65;71.13
57094;BME280;42970;50.996;3.706;2022-08-01T07:14:45;75771.22;;;-146.65;70.92
57094;BME280;42970;50.996;3.706;2022-08-01T07:17:11;75742.97;;;-146.65;70.57
57094;BME280;42970;50.996;3.706;2022-08-01T07:19:36;75753.06;;;-146.65;69.96
57094;BME280;42970;50.996;3.706;2022-08-01T07:22:02;75751.06;;;-146.65;69.62
57094;BME280;42970;50.996;3.706;2022-08-01T07:24:27;75771.22;;;-146.65;69.80
57094;BME280;42970;50.996;3.706;2022-08-01T07:26:54;75771.22;;;-146.65;69.10
57094;BME280;42970;50.996;3.706;2022-08-01T07:29:24;75775.25;;;-146.65;69.86
57094;BME280;42970;50.996;3.706;2022-08-01T07:31:51;75757.09;;;-146.65;69.02
57094;BME280;42970;50.996;3.706;2022-08-01T07:34:16;75722.81;;;-146.65;68.61
57094;BME280;42970;50.996;3.706;2022-08-01T07:36:41;75708.69;;;-146.65;66.69
57094;BME280;42970;50.996;3.706;2022-08-01T07:39:07;75682.47;;;-146.65;66.25
57094;BME280;42970;50.996;3.706;2022-08-01T07:41:32;75664.31;;;-146.65;65.67
57094;BME280;42970;50.996;3.706;2022-08-01T07:43:58;75654.22;;;-146.65;64.52
57094;BME280;42970;50.996;3.706;2022-08-01T07:46:23;75646.16;;;-146.65;64.95
57094;BME280;42970;50.996;3.706;2022-08-01T07:48:48;75662.31;;;-146.65;64.76
57094;BME280;42970;50.996;3.706;2022-08-01T07:51:14;75650.19;;;-146.65;65.19
57094;BME280;42970;50.996;3.706;2022-08-01T07:53:39;75662.31;;;-146.65;65.01
57094;BME280;42970;50.996;3.706;2022-08-01T07:56:05;75626.00;;;-146.65;64.22
57094;BME280;42970;50.996;3.706;2022-08-01T07:58:32;75591.69;;;-146.65;63.15
57094;BME280;42970;50.996;3.706;2022-08-01T08:00:57;75545.31;;;-146.65;62.35
57094;BME280;42970;50.996;3.706;2022-08-01T08:03:22;75504.97;;;-146.65;60.29
57094;BME280;42970;50.996;3.706;2022-08-01T08:05:48;75545.31;;;-146.65;60.01
57094;BME280;42970;50.996;3.706;2022-08-01T08:08:13;75535.22;;;-146.65;59.70
57094;BME280;42970;50.996;3.706;2022-08-01T08:10:40;75575.56;;;-146.65;60.95
57094;BME280;42970;50.996;3.706;2022-08-01T08:13:06;75557.41;;;-146.65;61.60
57094;BME280;42970;50.996;3.706;2022-08-01T08:15:31;75565.47;;;-146.65;60.63
57094;BME280;42970;50.996;3.706;2022-08-01T08:17:57;75565.47;;;-146.65;61.26
57094;BME280;42970;50.996;3.706;2022-08-01T08:20:22;75541.28;;;-146.65;60.25
57094;BME280;42970;50.996;3.706;2022-08-01T08:22:50;75533.22;;;-146.65;59.92
57094;BME280;42970;50.996;3.706;2022-08-01T08:25:16;75500.94;;;-146.65;59.49
57094;BME280;42970;50.996;3.706;2022-08-01T08:27:41;75488.84;;;-146.65;57.91
57094;BME280;42970;50.996;3.706;2022-08-01T08:30:07;75537.25;;;-146.65;58.34
57094;BME280;42970;50.996;3.706;2022-08-01T08:32:34;75569.50;;;-146.65;59.30
57094;BME280;42970;50.996;3.706;2022-08-01T08:35:00;75579.59;;;-146.65;60.04
57094;BME280;42970;50.996;3.706;2022-08-01T08:37:26;75555.41;;;-146.65;58.84
57094;BME280;42970;50.996;3.706;2022-08-01T08:39:51;75555.41;;;-146.65;58.92
57094;BME280;42970;50.996;3.706;2022-08-01T08:42:18;75565.47;;;-146.65;59.54
57094;BME280;42970;50.996;3.706;2022-08-01T08:44:43;75523.13;;;-146.65;57.68
57094;BME280;42970;50.996;3.706;2022-08-01T08:47:11;75478.75;;;-146.65;57.40
57094;BME280;42970;50.996;3.706;2022-08-01T08:49:37;75533.22;;;-146.65;58.24
57094;BME280;42970;50.996;3.706;2022-08-01T08:52:04;75525.13;;;-146.65;57.71
57094;BME280;42970;50.996;3.706;2022-08-01T08:54:30;75426.31;;;-146.65;56.12
57094;BME280;42970;50.996;3.706;2022-08-01T08:56:56;75434.38;;;-146.65;55.15
57094;BME280;42970;50.996;3.706;2022-08-01T08:59:22;75357.72;;;-146.65;52.05
57094;BME280;42970;50.996;3.706;2022-08-01T09:01:51;75279.06;;;-146.65;51.05
57094;BME280;42970;50.996;3.706;2022-08-01T09:04:17;75285.13;;;-146.65;51.53
57094;BME280;42970;50.996;3.706;2022-08-01T09:06:42;75301.25;;;-146.65;50.81
57094;BME280;42970;50.996;3.706;2022-08-01T09:09:09;75369.84;;;-146.65;51.81
57094;BME280;42970;50.996;3.706;2022-08-01T09:11:35;75379.91;;;-146.65;53.11
57094;BME280;42970;50.996;3.706;2022-08-01T09:14:18;75369.84;;;-146.65;52.43
57094;BME280;42970;50.996;3.706;2022-08-01T09:17:05;75343.59;;;-146.65;52.56
57094;BME280;42970;50.996;3.706;2022-08-01T09:19:45;75307.31;;;-146.65;51.45
57094;BME280;42970;50.996;3.706;2022-08-01T09:22:15;75349.66;;;-146.65;51.19
57094;BME280;42970;50.996;3.706;2022-08-01T09:24:57;75365.78;;;-146.65;52.09
57094;BME280;42970;50.996;3.706;2022-08-01T09:27:23;75371.84;;;-146.65;51.76
57094;BME280;42970;50.996;3.706;2022-08-01T09:29:52;75367.81;;;-146.65;52.02
57094;BME280;42970;50.996;3.706;2022-08-01T09:32:18;75291.16;;;-146.65;51.04
57094;BME280;42970;50.996;3.706;2022-08-01T09:34:44;75303.28;;;-146.65;49.71
57094;BME280;42970;50.996;3.706;2022-08-01T09:37:11;75279.06;;;-146.65;48.54
57094;BME280;42970;50.996;3.706;2022-08-01T09:39:37;75287.13;;;-146.65;50.27
57094;BME280;42970;50.996;3.706;2022-08-01T09:42:25;75325.47;;;-146.65;49.74
57094;BME280;42970;50.996;3.706;2022-08-01T09:44:51;75305.28;;;-146.65;50.29
57094;BME280;42970;50.996;3.706;2022-08-01T09:47:18;75283.09;;;-146.65;48.77
57094;BME280;42970;50.996;3.706;2022-08-01T09:49:53;75262.94;;;-146.65;48.17
57094;BME280;42970;50.996;3.706;2022-08-01T09:52:23;75264.94;;;-146.65;48.42
57094;BME280;42970;50.996;3.706;2022-08-01T09:54:53;75335.53;;;-146.65;49.48
57094;BME280;42970;50.996;3.706;2022-08-01T09:57:20;75273.03;;;-146.65;48.45
57094;BME280;42970;50.996;3.706;2022-08-01T09:59:48;75277.06;;;-146.65;47.51
57094;BME280;42970;50.996;3.706;2022-08-01T10:02:33;75256.88;;;-146.65;48.32
57094;BME280;42970;50.996;3.706;2022-08-01T10:05:03;75287.13;;;-146.65;49.56
57094;BME280;42970;50.996;3.706;2022-08-01T10:07:29;75297.22;;;-146.65;49.12
57094;BME280;42970;50.996;3.706;2022-08-01T10:09:55;75214.53;;;-146.65;48.20
57094;BME280;42970;50.996;3.706;2022-08-01T10:12:22;75194.34;;;-146.65;47.38
57094;BME280;42970;50.996;3.706;2022-08-01T10:14:49;75248.81;;;-146.65;47.37
57094;BME280;42970;50.996;3.706;2022-08-01T10:17:18;75291.16;;;-146.65;47.41
57094;BME280;42970;50.996;3.706;2022-08-01T10:19:45;75258.91;;;-146.65;47.27
57094;BME280;42970;50.996;3.706;2022-08-01T10:22:12;75258.91;;;-146.65;47.80
57094;BME280;42970;50.996;3.706;2022-08-01T10:24:43;75204.44;;;-146.65;46.82
57094;BME280;42970;50.996;3.706;2022-08-01T10:27:10;75152.00;;;-146.65;45.30
57094;BME280;42970;50.996;3.706;2022-08-01T10:29:40;75174.19;;;-146.65;45.78
57094;BME280;42970;50.996;3.706;2022-08-01T10:32:06;75127.81;;;-146.65;45.55
57094;BME280;42970;50.996;3.706;2022-08-01T10:34:35;75081.41;;;-146.65;45.01
57094;BME280;42970;50.996;3.706;2022-08-01T10:37:00;75103.59;;;-146.65;44.96
57094;BME280;42970;50.996;3.706;2022-08-01T10:39:26;75111.66;;;-146.65;44.16
57094;BME280;42970;50.996;3.706;2022-08-01T10:41:55;75121.75;;;-146.65;44.39
57094;BME280;42970;50.996;3.706;2022-08-01T10:44:22;75170.16;;;-146.65;45.58
57094;BME280;42970;50.996;3.706;2022-08-01T10:46:52;75077.38;;;-146.65;44.68
57094;BME280;42970;50.996;3.706;2022-08-01T10:49:20;75103.59;;;-146.65;44.67
57094;BME280;42970;50.996;3.706;2022-08-01T10:51:47;75097.56;;;-146.65;44.53
57094;BME280;42970;50.996;3.706;2022-08-01T10:54:13;75089.47;;;-146.65;44.61
57094;BME280;42970;50.996;3.706;2022-08-01T10:56:48;75008.81;;;-146.65;43.02
57094;BME280;42970;50.996;3.706;2022-08-01T10:59:25;75043.09;;;-146.65;43.32
57094;BME280;42970;50.996;3.706;2022-08-01T11:02:01;75022.94;;;-146.65;42.93
57094;BME280;42970;50.996;3.706;2022-08-01T11:05:01;74986.63;;;-146.65;42.58
57094;BME280;42970;50.996;3.706;2022-08-01T11:07:43;75024.94;;;-146.65;42.78
57094;BME280;42970;50.996;3.706;2022-08-01T11:12:52;75039.06;;;-146.65;43.42
57094;BME280;42970;50.996;3.706;2022-08-01T11:15:19;74952.34;;;-146.65;42.27
57094;BME280;42970;50.996;3.706;2022-08-01T11:17:52;75045.13;;;-146.65;43.14
57094;BME280;42970;50.996;3.706;2022-08-01T11:20:26;74869.66;;;-146.65;40.81
57094;BME280;42970;50.996;3.706;2022-08-01T11:31:24;75016.88;;;-146.65;42.22
57094;BME280;42970;50.996;3.706;2022-08-01T11:41:10;74776.88;;;-146.65;38.86
57094;BME280;42970;50.996;3.706;2022-08-01T11:46:45;74690.16;;;-146.65;38.01
57094;BME280;42970;50.996;3.706;2022-08-01T11:49:28;74653.88;;;-146.65;36.76
57094;BME280;42970;50.996;3.706;2022-08-01T11:54:34;74605.47;;;-146.65;35.77
57094;BME280;42970;50.996;3.706;2022-08-01T11:57:03;74559.09;;;-146.65;35.45
57094;BME280;42970;50.996;3.706;2022-08-01T11:59:35;74417.94;;;-146.65;34.38
57094;BME280;42970;50.996;3.706;2022-08-01T12:02:01;74415.91;;;-146.65;33.90
57094;BME280;42970;50.996;3.706;2022-08-01T12:05:05;74579.25;;;-146.65;34.76
57094;BME280;42970;50.996;3.706;2022-08-01T12:07:31;74760.75;;;-146.65;36.51
57094;BME280;42970;50.996;3.706;2022-08-01T12:10:07;74843.44;;;-146.65;37.29
57094;BME280;42970;50.996;3.706;2022-08-01T12:12:34;74678.06;;;-146.65;35.97
57094;BME280;42970;50.996;3.706;2022-08-01T12:15:03;74532.88;;;-146.65;34.52
57094;BME280;42970;50.996;3.706;2022-08-01T12:17:37;74577.25;;;-146.65;34.44
57094;BME280;42970;50.996;3.706;2022-08-01T12:20:06;74492.56;;;-146.65;34.19
57094;BME280;42970;50.996;3.706;2022-08-01T12:22:32;74549.00;;;-146.65;34.15
57094;BME280;42970;50.996;3.706;2022-08-01T12:25:09;74577.25;;;-146.65;34.51
57094;BME280;42970;50.996;3.706;2022-08-01T12:27:36;74540.94;;;-146.65;33.74
57094;BME280;42970;50.996;3.706;2022-08-01T12:30:09;74716.38;;;-146.65;35.13
57094;BME280;42970;50.996;3.706;2022-08-01T12:32:37;74823.28;;;-146.65;36.15
57094;BME280;42970;50.996;3.706;2022-08-01T12:37:32;74954.34;;;-146.65;37.52
57094;BME280;42970;50.996;3.706;2022-08-01T12:39:57;75004.78;;;-146.65;37.42
57094;BME280;42970;50.996;3.706;2022-08-01T12:42:24;75018.91;;;-146.65;36.78
57094;BME280;42970;50.996;3.706;2022-08-01T12:44:51;75028.97;;;-146.65;36.29
57094;BME280;42970;50.996;3.706;2022-08-01T12:47:18;74976.53;;;-146.65;35.62
57094;BME280;42970;50.996;3.706;2022-08-01T12:49:45;74960.41;;;-146.65;35.97
57094;BME280;42970;50.996;3.706;2022-08-01T12:52:12;74700.25;;;-146.65;34.44
57094;BME280;42970;50.996;3.706;2022-08-01T12:55:09;74561.13;;;-146.65;32.89
57094;BME280;42970;50.996;3.706;2022-08-01T12:57:38;74488.50;;;-146.65;32.73
57094;BME280;42970;50.996;3.706;2022-08-01T13:00:16;74526.81;;;-146.65;32.18
57094;BME280;42970;50.996;3.706;2022-08-01T13:02:45;74526.81;;;-146.65;32.10
57094;BME280;42970;50.996;3.706;2022-08-01T13:05:11;74450.19;;;-146.65;31.31
57094;BME280;42970;50.996;3.706;2022-08-01T13:07:42;74432.06;;;-146.65;31.44
57094;BME280;42970;50.996;3.706;2022-08-01T13:10:09;74454.22;;;-146.65;31.69
57094;BME280;42970;50.996;3.706;2022-08-01T13:12:36;74421.97;;;-146.65;31.36
57094;BME280;42970;50.996;3.706;2022-08-01T13:15:32;74492.56;;;-146.65;31.74
57094;BME280;42970;50.996;3.706;2022-08-01T13:18:00;74466.34;;;-146.65;31.50
57094;BME280;42970;50.996;3.706;2022-08-01T13:20:31;74561.13;;;-146.65;32.20
57094;BME280;42970;50.996;3.706;2022-08-01T13:23:29;74639.75;;;-146.65;33.38
57094;BME280;42970;50.996;3.706;2022-08-01T13:25:55;74724.47;;;-146.65;34.01
57094;BME280;42970;50.996;3.706;2022-08-01T13:28:26;74811.16;;;-146.65;35.34
57094;BME280;42970;50.996;3.706;2022-08-01T13:33:26;74544.97;;;-146.65;33.13